sensor_id;sensor_type;location;lat;lon;timestamp;P1;durP1;ratioP1;P2;durP2;ratioP2
51366;SDS011;37458;49.428;8.646;2023-02-21T00:01:50;7.80;;;4.30;;
51366;SDS011;37458;49.428;8.646;2023-02-21T00:04:35;8.67;;;4.53;;
51366;SDS011;37458;49.428;8.646;2023-02-21T00:07:20;8.53;;;5.17;;
51366;SDS011;37458;49.428;8.646;2023-02-21T00:10:05;8.77;;;4.40;;
51366;SDS011;37458;49.428;8.646;2023-02-21T00:12:50;5.97;;;4.00;;
51366;SDS011;37458;49.428;8.646;2023-02-21T00:15:35;6.00;;;3.80;;
51366;SDS011;37458;49.428;8.646;2023-02-21T00:18:19;12.87;;;5.07;;
51366;SDS011;37458;49.428;8.646;2023-02-21T00:21:04;9.50;;;4.63;;
51366;SDS011;37458;49.428;8.646;2023-02-21T00:23:48;10.77;;;4.80;;
51366;SDS011;37458;49.428;8.646;2023-02-21T00:26:33;9.80;;;5.90;;
51366;SDS011;37458;49.428;8.646;2023-02-21T00:29:17;11.03;;;5.87;;
51366;SDS011;37458;49.428;8.646;2023-02-21T00:32:02;12.17;;;4.77;;
51366;SDS011;37458;49.428;8.646;2023-02-21T00:34:46;13.27;;;6.47;;
51366;SDS011;37458;49.428;8.646;2023-02-21T00:37:31;12.77;;;4.80;;
51366;SDS011;37458;49.428;8.646;2023-02-21T00:40:15;9.00;;;3.77;;
51366;SDS011;37458;49.428;8.646;2023-02-21T00:43:00;8.30;;;4.40;;
51366;SDS011;37458;49.428;8.646;2023-02-21T00:45:45;7.23;;;4.10;;
51366;SDS011;37458;49.428;8.646;2023-02-21T00:48:30;8.07;;;4.07;;
51366;SDS011;37458;49.428;8.646;2023-02-21T00:51:15;8.00;;;4.17;;
51366;SDS011;37458;49.428;8.646;2023-02-21T00:54:00;9.50;;;3.70;;
51366;SDS011;37458;49.428;8.646;2023-02-21T00:56:45;5.90;;;3.77;;
51366;SDS011;37458;49.428;8.646;2023-02-21T00:59:29;7.60;;;4.00;;
51366;SDS011;37458;49.428;8.646;2023-02-21T01:02:14;6.73;;;4.27;;
51366;SDS011;37458;49.428;8.646;2023-02-21T01:04:58;7.23;;;4.17;;
51366;SDS011;37458;49.428;8.646;2023-02-21T01:07:43;7.17;;;3.90;;
51366;SDS011;37458;49.428;8.646;2023-02-21T01:10:27;9.00;;;5.30;;
51366;SDS011;37458;49.428;8.646;2023-02-21T01:13:12;8.53;;;5.67;;
51366;SDS011;37458;49.428;8.646;2023-02-21T01:15:57;8.80;;;4.73;;
51366;SDS011;37458;49.428;8.646;2023-02-21T01:18:41;7.20;;;4.90;;
51366;SDS011;37458;49.428;8.646;2023-02-21T01:21:26;11.93;;;6.40;;
51366;SDS011;37458;49.428;8.646;2023-02-21T01:24:12;14.40;;;7.07;;
51366;SDS011;37458;49.428;8.646;2023-02-21T01:26:57;14.67;;;6.90;;
51366;SDS011;37458;49.428;8.646;2023-02-21T01:29:41;15.70;;;7.80;;
51366;SDS011;37458;49.428;8.646;2023-02-21T01:32:26;8.83;;;5.07;;
51366;SDS011;37458;49.428;8.646;2023-02-21T01:35:10;9.93;;;5.73;;
51366;SDS011;37458;49.428;8.646;2023-02-21T01:37:55;16.97;;;8.63;;
51366;SDS011;37458;49.428;8.646;2023-02-21T01:40:40;13.70;;;7.40;;
51366;SDS011;37458;49.428;8.646;2023-02-21T01:43:25;8.20;;;4.90;;
51366;SDS011;37458;49.428;8.646;2023-02-21T01:46:10;4.90;;;4.37;;
51366;SDS011;37458;49.428;8.646;2023-02-21T01:48:55;7.60;;;3.63;;
51366;SDS011;37458;49.428;8.646;2023-02-21T01:51:41;7.97;;;4.13;;
51366;SDS011;37458;49.428;8.646;2023-02-21T01:54:26;10.70;;;4.50;;
51366;SDS011;37458;49.428;8.646;2023-02-21T01:57:12;9.37;;;4.30;;
51366;SDS011;37458;49.428;8.646;2023-02-21T01:59:57;11.20;;;4.97;;
51366;SDS011;37458;49.428;8.646;2023-02-21T02:05:33;7.57;;;4.70;;
51366;SDS011;37458;49.428;8.646;2023-02-21T02:08:18;10.23;;;4.97;;
51366;SDS011;37458;49.428;8.646;2023-02-21T02:11:09;8.43;;;4.20;;
51366;SDS011;37458;49.428;8.646;2023-02-21T02:14:04;7.63;;;3.87;;
51366;SDS011;37458;49.428;8.646;2023-02-21T02:16:55;10.07;;;4.40;;
51366;SDS011;37458;49.428;8.646;2023-02-21T02:24:59;7.20;;;4.10;;
51366;SDS011;37458;49.428;8.646;2023-02-21T02:42:47;7.37;;;4.23;;
51366;SDS011;37458;49.428;8.646;2023-02-21T02:45:29;5.37;;;3.60;;
51366;SDS011;37458;49.428;8.646;2023-02-21T02:47:58;8.67;;;4.27;;
51366;SDS011;37458;49.428;8.646;2023-02-21T02:50:26;7.57;;;4.17;;
51366;SDS011;37458;49.428;8.646;2023-02-21T02:52:54;8.30;;;4.30;;
51366;SDS011;37458;49.428;8.646;2023-02-21T02:55:23;6.87;;;3.90;;
51366;SDS011;37458;49.428;8.646;2023-02-21T02:57:50;8.67;;;4.57;;
51366;SDS011;37458;49.428;8.646;2023-02-21T03:00:16;7.20;;;4.20;;
51366;SDS011;37458;49.428;8.646;2023-02-21T03:10:39;7.20;;;4.60;;
51366;SDS011;37458;49.428;8.646;2023-02-21T03:16:00;9.67;;;5.43;;
51366;SDS011;37458;49.428;8.646;2023-02-21T03:20:56;8.80;;;5.47;;
51366;SDS011;37458;49.428;8.646;2023-02-21T03:23:23;7.13;;;4.40;;
51366;SDS011;37458;49.428;8.646;2023-02-21T03:25:50;6.43;;;4.40;;
51366;SDS011;37458;49.428;8.646;2023-02-21T03:28:17;9.17;;;6.10;;
51366;SDS011;37458;49.428;8.646;2023-02-21T03:30:43;7.50;;;6.50;;
51366;SDS011;37458;49.428;8.646;2023-02-21T03:33:09;8.53;;;4.53;;
51366;SDS011;37458;49.428;8.646;2023-02-21T03:35:35;9.33;;;5.33;;
51366;SDS011;37458;49.428;8.646;2023-02-21T03:38:01;7.43;;;4.70;;
51366;SDS011;37458;49.428;8.646;2023-02-21T03:40:28;9.00;;;5.07;;
51366;SDS011;37458;49.428;8.646;2023-02-21T03:42:55;10.37;;;6.53;;
51366;SDS011;37458;49.428;8.646;2023-02-21T03:45:21;11.70;;;6.97;;
51366;SDS011;37458;49.428;8.646;2023-02-21T03:47:48;7.83;;;4.63;;
51366;SDS011;37458;49.428;8.646;2023-02-21T03:50:14;10.70;;;5.37;;
51366;SDS011;37458;49.428;8.646;2023-02-21T03:52:40;13.20;;;6.97;;
51366;SDS011;37458;49.428;8.646;2023-02-21T03:55:06;6.73;;;4.80;;
51366;SDS011;37458;49.428;8.646;2023-02-21T03:57:32;8.07;;;4.60;;
51366;SDS011;37458;49.428;8.646;2023-02-21T03:59:59;10.80;;;5.70;;
51366;SDS011;37458;49.428;8.646;2023-02-21T04:02:25;9.40;;;5.77;;
51366;SDS011;37458;49.428;8.646;2023-02-21T04:04:51;8.70;;;4.33;;
51366;SDS011;37458;49.428;8.646;2023-02-21T04:07:18;11.10;;;6.73;;
51366;SDS011;37458;49.428;8.646;2023-02-21T04:09:44;9.57;;;5.37;;
51366;SDS011;37458;49.428;8.646;2023-02-21T04:12:11;8.60;;;5.30;;
51366;SDS011;37458;49.428;8.646;2023-02-21T04:14:37;9.40;;;4.83;;
51366;SDS011;37458;49.428;8.646;2023-02-21T04:17:03;8.87;;;4.90;;
51366;SDS011;37458;49.428;8.646;2023-02-21T04:19:29;9.47;;;5.70;;
51366;SDS011;37458;49.428;8.646;2023-02-21T04:21:55;12.73;;;5.20;;
51366;SDS011;37458;49.428;8.646;2023-02-21T04:24:21;6.40;;;4.33;;
51366;SDS011;37458;49.428;8.646;2023-02-21T04:26:47;10.27;;;4.80;;
51366;SDS011;37458;49.428;8.646;2023-02-21T04:29:13;8.03;;;4.53;;
51366;SDS011;37458;49.428;8.646;2023-02-21T04:31:39;11.37;;;5.33;;
51366;SDS011;37458;49.428;8.646;2023-02-21T04:34:05;11.23;;;5.47;;
51366;SDS011;37458;49.428;8.646;2023-02-21T04:36:31;10.50;;;5.57;;
51366;SDS011;37458;49.428;8.646;2023-02-21T04:38:57;8.33;;;5.13;;
51366;SDS011;37458;49.428;8.646;2023-02-21T04:41:23;12.30;;;5.50;;
51366;SDS011;37458;49.428;8.646;2023-02-21T04:43:49;10.13;;;4.80;;
51366;SDS011;37458;49.428;8.646;2023-02-21T04:46:17;8.53;;;5.47;;
51366;SDS011;37458;49.428;8.646;2023-02-21T04:48:43;9.60;;;5.10;;
51366;SDS011;37458;49.428;8.646;2023-02-21T04:51:10;7.20;;;4.73;;
51366;SDS011;37458;49.428;8.646;2023-02-21T04:53:36;10.23;;;4.40;;
51366;SDS011;37458;49.428;8.646;2023-02-21T04:56:02;9.93;;;4.97;;
51366;SDS011;37458;49.428;8.646;2023-02-21T04:58:28;7.83;;;4.53;;
51366;SDS011;37458;49.428;8.646;2023-02-21T05:00:54;8.67;;;4.40;;
51366;SDS011;37458;49.428;8.646;2023-02-21T05:03:20;10.63;;;4.47;;
51366;SDS011;37458;49.428;8.646;2023-02-21T05:05:48;9.67;;;5.47;;
51366;SDS011;37458;49.428;8.646;2023-02-21T05:08:13;7.77;;;4.60;;
51366;SDS011;37458;49.428;8.646;2023-02-21T05:10:39;6.87;;;4.60;;
51366;SDS011;37458;49.428;8.646;2023-02-21T05:13:05;6.90;;;4.30;;
51366;SDS011;37458;49.428;8.646;2023-02-21T05:15:31;8.00;;;4.60;;
51366;SDS011;37458;49.428;8.646;2023-02-21T05:17:57;9.33;;;4.70;;
51366;SDS011;37458;49.428;8.646;2023-02-21T05:20:23;7.83;;;4.30;;
51366;SDS011;37458;49.428;8.646;2023-02-21T05:22:49;7.07;;;4.53;;
51366;SDS011;37458;49.428;8.646;2023-02-21T05:25:17;7.07;;;4.20;;
51366;SDS011;37458;49.428;8.646;2023-02-21T05:27:43;10.63;;;5.00;;
51366;SDS011;37458;49.428;8.646;2023-02-21T05:30:10;8.90;;;5.20;;
51366;SDS011;37458;49.428;8.646;2023-02-21T05:32:36;9.47;;;4.97;;
51366;SDS011;37458;49.428;8.646;2023-02-21T05:35:02;8.20;;;4.73;;
51366;SDS011;37458;49.428;8.646;2023-02-21T05:37:28;6.37;;;4.63;;
51366;SDS011;37458;49.428;8.646;2023-02-21T05:39:54;6.90;;;4.27;;
51366;SDS011;37458;49.428;8.646;2023-02-21T05:42:20;11.70;;;4.90;;
51366;SDS011;37458;49.428;8.646;2023-02-21T05:44:46;5.83;;;4.47;;
51366;SDS011;37458;49.428;8.646;2023-02-21T05:47:13;9.50;;;4.67;;
51366;SDS011;37458;49.428;8.646;2023-02-21T05:49:39;8.00;;;4.40;;
51366;SDS011;37458;49.428;8.646;2023-02-21T05:52:05;9.07;;;4.80;;
51366;SDS011;37458;49.428;8.646;2023-02-21T05:54:31;8.40;;;4.73;;
51366;SDS011;37458;49.428;8.646;2023-02-21T05:56:58;8.67;;;4.70;;
51366;SDS011;37458;49.428;8.646;2023-02-21T05:59:24;9.13;;;5.00;;
51366;SDS011;37458;49.428;8.646;2023-02-21T06:01:50;6.17;;;4.77;;
51366;SDS011;37458;49.428;8.646;2023-02-21T06:04:16;7.43;;;4.97;;
51366;SDS011;37458;49.428;8.646;2023-02-21T06:06:42;9.53;;;5.93;;
51366;SDS011;37458;49.428;8.646;2023-02-21T06:09:08;11.37;;;5.20;;
51366;SDS011;37458;49.428;8.646;2023-02-21T06:11:35;8.37;;;4.93;;
51366;SDS011;37458;49.428;8.646;2023-02-21T06:14:02;11.67;;;5.53;;
51366;SDS011;37458;49.428;8.646;2023-02-21T06:16:32;7.87;;;5.27;;
51366;SDS011;37458;49.428;8.646;2023-02-21T06:18:58;8.50;;;5.17;;
51366;SDS011;37458;49.428;8.646;2023-02-21T06:21:24;7.07;;;5.53;;
51366;SDS011;37458;49.428;8.646;2023-02-21T06:23:51;8.47;;;5.07;;
51366;SDS011;37458;49.428;8.646;2023-02-21T06:26:17;8.93;;;5.03;;
51366;SDS011;37458;49.428;8.646;2023-02-21T06:28:43;8.37;;;5.13;;
51366;SDS011;37458;49.428;8.646;2023-02-21T06:31:09;7.97;;;4.70;;
51366;SDS011;37458;49.428;8.646;2023-02-21T06:33:36;6.63;;;4.83;;
51366;SDS011;37458;49.428;8.646;2023-02-21T06:36:05;10.53;;;4.90;;
51366;SDS011;37458;49.428;8.646;2023-02-21T06:38:32;9.80;;;5.20;;
51366;SDS011;37458;49.428;8.646;2023-02-21T06:40:58;8.13;;;4.03;;
51366;SDS011;37458;49.428;8.646;2023-02-21T06:43:24;6.53;;;4.87;;
51366;SDS011;37458;49.428;8.646;2023-02-21T06:45:50;10.83;;;5.17;;
51366;SDS011;37458;49.428;8.646;2023-02-21T06:48:16;8.77;;;5.27;;
51366;SDS011;37458;49.428;8.646;2023-02-21T06:50:42;10.17;;;5.33;;
51366;SDS011;37458;49.428;8.646;2023-02-21T06:53:09;13.13;;;5.23;;
51366;SDS011;37458;49.428;8.646;2023-02-21T06:55:35;13.60;;;5.60;;
51366;SDS011;37458;49.428;8.646;2023-02-21T06:58:01;8.17;;;5.20;;
51366;SDS011;37458;49.428;8.646;2023-02-21T07:00:27;7.67;;;4.87;;
51366;SDS011;37458;49.428;8.646;2023-02-21T07:02:53;6.37;;;4.43;;
51366;SDS011;37458;49.428;8.646;2023-02-21T07:05:19;7.60;;;4.97;;
51366;SDS011;37458;49.428;8.646;2023-02-21T07:07:45;8.60;;;4.43;;
51366;SDS011;37458;49.428;8.646;2023-02-21T07:10:11;11.83;;;4.63;;
51366;SDS011;37458;49.428;8.646;2023-02-21T07:12:37;6.20;;;4.40;;
51366;SDS011;37458;49.428;8.646;2023-02-21T07:15:03;9.17;;;3.80;;
51366;SDS011;37458;49.428;8.646;2023-02-21T07:17:29;7.43;;;4.67;;
51366;SDS011;37458;49.428;8.646;2023-02-21T07:19:55;7.00;;;4.57;;
51366;SDS011;37458;49.428;8.646;2023-02-21T07:22:21;7.27;;;4.80;;
51366;SDS011;37458;49.428;8.646;2023-02-21T07:24:54;9.27;;;4.60;;
51366;SDS011;37458;49.428;8.646;2023-02-21T07:27:20;7.03;;;4.73;;
51366;SDS011;37458;49.428;8.646;2023-02-21T07:29:47;9.07;;;4.73;;
51366;SDS011;37458;49.428;8.646;2023-02-21T07:32:14;7.30;;;4.13;;
51366;SDS011;37458;49.428;8.646;2023-02-21T07:34:42;8.13;;;4.93;;
51366;SDS011;37458;49.428;8.646;2023-02-21T07:37:08;10.60;;;4.87;;
51366;SDS011;37458;49.428;8.646;2023-02-21T07:39:34;7.03;;;4.30;;
51366;SDS011;37458;49.428;8.646;2023-02-21T07:42:03;7.63;;;4.63;;
51366;SDS011;37458;49.428;8.646;2023-02-21T07:44:29;7.27;;;4.13;;
51366;SDS011;37458;49.428;8.646;2023-02-21T07:46:56;8.10;;;5.00;;
51366;SDS011;37458;49.428;8.646;2023-02-21T07:49:22;10.37;;;5.00;;
51366;SDS011;37458;49.428;8.646;2023-02-21T07:51:48;13.00;;;4.93;;
51366;SDS011;37458;49.428;8.646;2023-02-21T07:54:15;7.87;;;4.53;;
51366;SDS011;37458;49.428;8.646;2023-02-21T07:56:45;12.40;;;5.47;;
51366;SDS011;37458;49.428;8.646;2023-02-21T07:59:11;9.63;;;5.07;;
51366;SDS011;37458;49.428;8.646;2023-02-21T08:01:37;8.73;;;4.67;;
51366;SDS011;37458;49.428;8.646;2023-02-21T08:04:03;9.40;;;5.20;;
51366;SDS011;37458;49.428;8.646;2023-02-21T08:06:29;7.83;;;5.43;;
51366;SDS011;37458;49.428;8.646;2023-02-21T08:08:55;9.53;;;5.70;;
51366;SDS011;37458;49.428;8.646;2023-02-21T08:11:21;9.83;;;6.50;;
51366;SDS011;37458;49.428;8.646;2023-02-21T08:13:47;10.53;;;6.20;;
51366;SDS011;37458;49.428;8.646;2023-02-21T08:16:13;10.23;;;6.17;;
51366;SDS011;37458;49.428;8.646;2023-02-21T08:18:39;8.50;;;6.30;;
51366;SDS011;37458;49.428;8.646;2023-02-21T08:21:07;8.98;;;5.70;;
51366;SDS011;37458;49.428;8.646;2023-02-21T08:23:33;12.68;;;6.30;;
51366;SDS011;37458;49.428;8.646;2023-02-21T08:25:59;13.30;;;6.20;;
51366;SDS011;37458;49.428;8.646;2023-02-21T08:28:25;10.73;;;6.22;;
51366;SDS011;37458;49.428;8.646;2023-02-21T08:30:51;10.18;;;6.03;;
51366;SDS011;37458;49.428;8.646;2023-02-21T08:33:17;8.52;;;6.00;;
51366;SDS011;37458;49.428;8.646;2023-02-21T08:35:43;9.40;;;6.32;;
51366;SDS011;37458;49.428;8.646;2023-02-21T08:38:09;9.82;;;6.70;;
51366;SDS011;37458;49.428;8.646;2023-02-21T08:40:35;10.50;;;6.68;;
51366;SDS011;37458;49.428;8.646;2023-02-21T08:43:02;8.88;;;7.22;;
51366;SDS011;37458;49.428;8.646;2023-02-21T08:45:29;9.18;;;6.93;;
51366;SDS011;37458;49.428;8.646;2023-02-21T08:47:55;9.35;;;7.15;;
51366;SDS011;37458;49.428;8.646;2023-02-21T08:50:22;8.70;;;6.93;;
51366;SDS011;37458;49.428;8.646;2023-02-21T08:52:48;9.65;;;6.93;;
51366;SDS011;37458;49.428;8.646;2023-02-21T08:55:15;10.65;;;7.20;;
51366;SDS011;37458;49.428;8.646;2023-02-21T08:57:41;9.60;;;7.07;;
51366;SDS011;37458;49.428;8.646;2023-02-21T09:00:07;10.13;;;7.40;;
51366;SDS011;37458;49.428;8.646;2023-02-21T09:02:34;9.57;;;7.50;;
51366;SDS011;37458;49.428;8.646;2023-02-21T09:05:04;8.40;;;7.50;;
51366;SDS011;37458;49.428;8.646;2023-02-21T09:07:30;9.15;;;7.03;;
51366;SDS011;37458;49.428;8.646;2023-02-21T09:09:57;10.75;;;7.47;;
51366;SDS011;37458;49.428;8.646;2023-02-21T09:12:23;8.60;;;6.80;;
51366;SDS011;37458;49.428;8.646;2023-02-21T09:14:49;8.77;;;7.60;;
51366;SDS011;37458;49.428;8.646;2023-02-21T09:17:15;8.07;;;7.30;;
51366;SDS011;37458;49.428;8.646;2023-02-21T09:19:41;8.52;;;7.35;;
51366;SDS011;37458;49.428;8.646;2023-02-21T09:22:08;12.13;;;7.55;;
51366;SDS011;37458;49.428;8.646;2023-02-21T09:24:35;8.23;;;7.07;;
51366;SDS011;37458;49.428;8.646;2023-02-21T09:27:01;10.07;;;7.97;;
51366;SDS011;37458;49.428;8.646;2023-02-21T09:29:27;13.85;;;8.35;;
51366;SDS011;37458;49.428;8.646;2023-02-21T09:31:54;8.48;;;7.65;;
51366;SDS011;37458;49.428;8.646;2023-02-21T09:34:20;9.20;;;8.25;;
51366;SDS011;37458;49.428;8.646;2023-02-21T09:36:46;12.95;;;7.68;;
51366;SDS011;37458;49.428;8.646;2023-02-21T09:39:13;12.55;;;8.90;;
51366;SDS011;37458;49.428;8.646;2023-02-21T09:41:39;9.52;;;8.30;;
51366;SDS011;37458;49.428;8.646;2023-02-21T09:44:10;8.90;;;7.68;;
51366;SDS011;37458;49.428;8.646;2023-02-21T09:46:39;9.55;;;8.55;;
51366;SDS011;37458;49.428;8.646;2023-02-21T09:49:09;10.15;;;8.25;;
51366;SDS011;37458;49.428;8.646;2023-02-21T09:51:37;10.82;;;9.20;;
51366;SDS011;37458;49.428;8.646;2023-02-21T09:54:08;11.15;;;9.35;;
51366;SDS011;37458;49.428;8.646;2023-02-21T09:56:38;11.63;;;9.25;;
51366;SDS011;37458;49.428;8.646;2023-02-21T09:59:14;17.15;;;9.05;;
51366;SDS011;37458;49.428;8.646;2023-02-21T10:04:30;13.10;;;9.70;;
51366;SDS011;37458;49.428;8.646;2023-02-21T10:07:17;12.60;;;9.65;;
51366;SDS011;37458;49.428;8.646;2023-02-21T10:20:55;10.02;;;9.02;;
51366;SDS011;37458;49.428;8.646;2023-02-21T10:23:44;14.55;;;10.27;;
51366;SDS011;37458;49.428;8.646;2023-02-21T10:32:47;13.68;;;9.27;;
51366;SDS011;37458;49.428;8.646;2023-02-21T10:35:39;10.10;;;9.15;;
51366;SDS011;37458;49.428;8.646;2023-02-21T10:38:07;10.82;;;8.98;;
51366;SDS011;37458;49.428;8.646;2023-02-21T10:43:31;14.55;;;9.90;;
51366;SDS011;37458;49.428;8.646;2023-02-21T10:48:35;12.20;;;10.30;;
51366;SDS011;37458;49.428;8.646;2023-02-21T10:51:06;10.55;;;9.52;;
51366;SDS011;37458;49.428;8.646;2023-02-21T10:53:45;10.88;;;9.18;;
51366;SDS011;37458;49.428;8.646;2023-02-21T10:58:43;11.57;;;10.48;;
51366;SDS011;37458;49.428;8.646;2023-02-21T11:01:11;13.65;;;10.38;;
51366;SDS011;37458;49.428;8.646;2023-02-21T11:03:41;11.30;;;9.40;;
51366;SDS011;37458;49.428;8.646;2023-02-21T11:06:08;11.88;;;10.52;;
51366;SDS011;37458;49.428;8.646;2023-02-21T11:08:42;11.55;;;10.35;;
51366;SDS011;37458;49.428;8.646;2023-02-21T11:11:08;11.38;;;9.80;;
51366;SDS011;37458;49.428;8.646;2023-02-21T11:13:34;10.77;;;9.68;;
51366;SDS011;37458;49.428;8.646;2023-02-21T11:18:33;10.63;;;9.52;;
51366;SDS011;37458;49.428;8.646;2023-02-21T11:21:09;11.45;;;9.65;;
51366;SDS011;37458;49.428;8.646;2023-02-21T11:23:36;11.32;;;9.25;;
51366;SDS011;37458;49.428;8.646;2023-02-21T11:26:06;10.20;;;9.05;;
51366;SDS011;37458;49.428;8.646;2023-02-21T11:28:37;11.80;;;9.57;;
51366;SDS011;37458;49.428;8.646;2023-02-21T11:31:05;10.55;;;8.82;;
51366;SDS011;37458;49.428;8.646;2023-02-21T11:33:35;12.88;;;9.73;;
51366;SDS011;37458;49.428;8.646;2023-02-21T11:36:15;10.70;;;9.60;;
51366;SDS011;37458;49.428;8.646;2023-02-21T11:41:28;11.98;;;9.10;;
51366;SDS011;37458;49.428;8.646;2023-02-21T11:43:55;12.10;;;8.80;;
51366;SDS011;37458;49.428;8.646;2023-02-21T11:46:43;10.73;;;9.15;;
51366;SDS011;37458;49.428;8.646;2023-02-21T11:54:05;11.57;;;9.63;;
51366;SDS011;37458;49.428;8.646;2023-02-21T11:56:51;9.68;;;8.30;;
51366;SDS011;37458;49.428;8.646;2023-02-21T11:59:30;10.82;;;8.70;;
51366;SDS011;37458;49.428;8.646;2023-02-21T12:04:40;9.88;;;8.90;;
51366;SDS011;37458;49.428;8.646;2023-02-21T12:07:15;9.40;;;8.20;;
51366;SDS011;37458;49.428;8.646;2023-02-21T12:12:22;9.23;;;8.32;;
51366;SDS011;37458;49.428;8.646;2023-02-21T12:14:53;10.65;;;7.93;;
51366;SDS011;37458;49.428;8.646;2023-02-21T12:17:27;9.95;;;7.93;;
51366;SDS011;37458;49.428;8.646;2023-02-21T12:20:01;9.77;;;7.65;;
51366;SDS011;37458;49.428;8.646;2023-02-21T12:27:52;8.70;;;7.65;;
51366;SDS011;37458;49.428;8.646;2023-02-21T12:30:30;8.18;;;7.38;;
51366;SDS011;37458;49.428;8.646;2023-02-21T12:35:49;9.48;;;7.40;;
51366;SDS011;37458;49.428;8.646;2023-02-21T12:41:20;10.25;;;6.68;;
51366;SDS011;37458;49.428;8.646;2023-02-21T12:43:54;7.95;;;6.90;;
51366;SDS011;37458;49.428;8.646;2023-02-21T12:46:27;8.20;;;6.55;;
51366;SDS011;37458;49.428;8.646;2023-02-21T12:49:02;7.32;;;6.45;;
51366;SDS011;37458;49.428;8.646;2023-02-21T12:51:31;9.90;;;7.25;;
51366;SDS011;37458;49.428;8.646;2023-02-21T12:56:55;9.38;;;6.63;;
51366;SDS011;37458;49.428;8.646;2023-02-21T13:01:54;6.93;;;6.20;;
51366;SDS011;37458;49.428;8.646;2023-02-21T13:07:09;8.77;;;5.90;;
51366;SDS011;37458;49.428;8.646;2023-02-21T13:09:46;7.18;;;5.90;;
51366;SDS011;37458;49.428;8.646;2023-02-21T13:12:15;7.47;;;5.82;;
51366;SDS011;37458;49.428;8.646;2023-02-21T13:14:45;8.02;;;5.82;;
51366;SDS011;37458;49.428;8.646;2023-02-21T13:17:13;5.70;;;5.10;;
51366;SDS011;37458;49.428;8.646;2023-02-21T13:19:51;7.95;;;5.25;;
51366;SDS011;37458;49.428;8.646;2023-02-21T13:28:00;7.65;;;4.88;;
51366;SDS011;37458;49.428;8.646;2023-02-21T13:32:56;4.88;;;4.35;;
51366;SDS011;37458;49.428;8.646;2023-02-21T13:35:28;4.60;;;4.20;;
51366;SDS011;37458;49.428;8.646;2023-02-21T13:37:55;4.53;;;4.07;;
51366;SDS011;37458;49.428;8.646;2023-02-21T13:40:23;8.48;;;3.92;;
51366;SDS011;37458;49.428;8.646;2023-02-21T13:43:00;7.25;;;4.57;;
51366;SDS011;37458;49.428;8.646;2023-02-21T13:45:30;7.45;;;4.60;;
51366;SDS011;37458;49.428;8.646;2023-02-21T13:53:22;5.88;;;4.20;;
51366;SDS011;37458;49.428;8.646;2023-02-21T13:58:36;5.55;;;4.28;;
51366;SDS011;37458;49.428;8.646;2023-02-21T14:03:47;5.45;;;4.00;;
51366;SDS011;37458;49.428;8.646;2023-02-21T14:06:24;5.82;;;3.97;;
51366;SDS011;37458;49.428;8.646;2023-02-21T14:08:53;4.60;;;3.97;;
51366;SDS011;37458;49.428;8.646;2023-02-21T14:11:23;5.05;;;3.88;;
51366;SDS011;37458;49.428;8.646;2023-02-21T14:13:52;6.28;;;3.83;;
51366;SDS011;37458;49.428;8.646;2023-02-21T14:16:22;5.97;;;3.92;;
51366;SDS011;37458;49.428;8.646;2023-02-21T14:18:57;5.55;;;3.80;;
51366;SDS011;37458;49.428;8.646;2023-02-21T14:34:31;4.55;;;3.20;;
51366;SDS011;37458;49.428;8.646;2023-02-21T14:36:59;3.97;;;3.05;;
51366;SDS011;37458;49.428;8.646;2023-02-21T14:39:30;5.82;;;3.83;;
51366;SDS011;37458;49.428;8.646;2023-02-21T14:42:07;7.32;;;3.45;;
51366;SDS011;37458;49.428;8.646;2023-02-21T14:44:53;11.57;;;3.22;;
51366;SDS011;37458;49.428;8.646;2023-02-21T14:58:25;5.60;;;3.78;;
51366;SDS011;37458;49.428;8.646;2023-02-21T15:01:15;5.97;;;3.00;;
51366;SDS011;37458;49.428;8.646;2023-02-21T15:06:21;5.57;;;3.10;;
51366;SDS011;37458;49.428;8.646;2023-02-21T15:08:49;4.75;;;3.38;;
51366;SDS011;37458;49.428;8.646;2023-02-21T15:11:26;6.55;;;3.65;;
51366;SDS011;37458;49.428;8.646;2023-02-21T15:14:12;6.40;;;3.55;;
51366;SDS011;37458;49.428;8.646;2023-02-21T15:16:45;4.68;;;3.33;;
51366;SDS011;37458;49.428;8.646;2023-02-21T15:19:23;5.95;;;3.33;;
51366;SDS011;37458;49.428;8.646;2023-02-21T15:22:05;4.82;;;2.90;;
51366;SDS011;37458;49.428;8.646;2023-02-21T15:24:31;5.05;;;3.30;;
51366;SDS011;37458;49.428;8.646;2023-02-21T15:27:10;6.30;;;3.28;;
51366;SDS011;37458;49.428;8.646;2023-02-21T15:29:37;4.43;;;2.92;;
51366;SDS011;37458;49.428;8.646;2023-02-21T15:32:03;4.38;;;3.20;;
51366;SDS011;37458;49.428;8.646;2023-02-21T15:34:35;7.55;;;3.60;;
51366;SDS011;37458;49.428;8.646;2023-02-21T15:37:21;6.00;;;3.30;;
51366;SDS011;37458;49.428;8.646;2023-02-21T15:40:12;7.80;;;3.03;;
51366;SDS011;37458;49.428;8.646;2023-02-21T15:42:38;6.10;;;3.60;;
51366;SDS011;37458;49.428;8.646;2023-02-21T15:45:06;5.07;;;4.05;;
51366;SDS011;37458;49.428;8.646;2023-02-21T15:47:34;7.13;;;3.45;;
51366;SDS011;37458;49.428;8.646;2023-02-21T15:55:12;6.00;;;3.08;;
51366;SDS011;37458;49.428;8.646;2023-02-21T15:57:38;5.18;;;2.80;;
51366;SDS011;37458;49.428;8.646;2023-02-21T16:02:49;4.77;;;3.07;;
51366;SDS011;37458;49.428;8.646;2023-02-21T16:05:25;3.93;;;2.73;;
51366;SDS011;37458;49.428;8.646;2023-02-21T16:07:52;4.00;;;2.97;;
51366;SDS011;37458;49.428;8.646;2023-02-21T16:10:22;6.00;;;3.00;;
51366;SDS011;37458;49.428;8.646;2023-02-21T16:12:59;4.77;;;2.90;;
51366;SDS011;37458;49.428;8.646;2023-02-21T16:15:29;5.50;;;3.00;;
51366;SDS011;37458;49.428;8.646;2023-02-21T16:17:57;5.40;;;2.60;;
51366;SDS011;37458;49.428;8.646;2023-02-21T16:20:36;6.30;;;2.60;;
51366;SDS011;37458;49.428;8.646;2023-02-21T16:23:22;5.67;;;2.90;;
51366;SDS011;37458;49.428;8.646;2023-02-21T16:26:32;4.90;;;2.80;;
51366;SDS011;37458;49.428;8.646;2023-02-21T16:28:42;4.77;;;2.60;;
51366;SDS011;37458;49.428;8.646;2023-02-21T16:31:13;6.83;;;2.60;;
51366;SDS011;37458;49.428;8.646;2023-02-21T16:33:40;5.20;;;2.87;;
51366;SDS011;37458;49.428;8.646;2023-02-21T16:36:07;4.57;;;3.00;;
51366;SDS011;37458;49.428;8.646;2023-02-21T16:38:34;5.07;;;2.67;;
51366;SDS011;37458;49.428;8.646;2023-02-21T16:41:00;4.63;;;2.80;;
51366;SDS011;37458;49.428;8.646;2023-02-21T16:43:27;5.37;;;2.93;;
51366;SDS011;37458;49.428;8.646;2023-02-21T16:45:54;6.33;;;3.10;;
51366;SDS011;37458;49.428;8.646;2023-02-21T16:48:21;10.00;;;5.17;;
51366;SDS011;37458;49.428;8.646;2023-02-21T16:50:49;10.23;;;5.23;;
51366;SDS011;37458;49.428;8.646;2023-02-21T16:53:16;7.87;;;4.40;;
51366;SDS011;37458;49.428;8.646;2023-02-21T16:55:42;6.53;;;3.20;;
51366;SDS011;37458;49.428;8.646;2023-02-21T16:58:26;5.60;;;3.00;;
51366;SDS011;37458;49.428;8.646;2023-02-21T17:00:54;5.67;;;2.53;;
51366;SDS011;37458;49.428;8.646;2023-02-21T17:03:21;5.13;;;3.17;;
51366;SDS011;37458;49.428;8.646;2023-02-21T17:05:48;4.67;;;3.90;;
51366;SDS011;37458;49.428;8.646;2023-02-21T17:08:15;6.13;;;3.47;;
51366;SDS011;37458;49.428;8.646;2023-02-21T17:10:41;3.67;;;2.73;;
51366;SDS011;37458;49.428;8.646;2023-02-21T17:13:07;4.47;;;2.10;;
51366;SDS011;37458;49.428;8.646;2023-02-21T17:15:32;4.57;;;2.47;;
51366;SDS011;37458;49.428;8.646;2023-02-21T17:17:59;4.60;;;2.60;;
51366;SDS011;37458;49.428;8.646;2023-02-21T17:20:25;5.43;;;2.40;;
51366;SDS011;37458;49.428;8.646;2023-02-21T17:22:51;5.47;;;1.90;;
51366;SDS011;37458;49.428;8.646;2023-02-21T17:25:18;10.80;;;2.60;;
51366;SDS011;37458;49.428;8.646;2023-02-21T17:27:44;4.47;;;2.10;;
51366;SDS011;37458;49.428;8.646;2023-02-21T17:30:10;6.60;;;2.03;;
51366;SDS011;37458;49.428;8.646;2023-02-21T17:32:36;4.93;;;3.17;;
51366;SDS011;37458;49.428;8.646;2023-02-21T17:35:03;8.57;;;5.07;;
51366;SDS011;37458;49.428;8.646;2023-02-21T17:37:29;10.20;;;6.67;;
51366;SDS011;37458;49.428;8.646;2023-02-21T17:39:55;13.23;;;7.80;;